createdAt,value
2018-07-07T00:00:41.303Z,50.27
2018-07-07T00:01:41.289Z,50.17
2018-07-07T00:02:41.276Z,50.65
2018-07-07T00:03:41.260Z,51.04
2018-07-07T00:04:41.247Z,50.84
2018-07-07T00:05:41.241Z,51.14
2018-07-07T00:06:41.219Z,51.23
2018-07-07T00:07:41.206Z,51.04
2018-07-07T00:08:41.190Z,51.14
2018-07-07T00:09:41.184Z,51.23
2018-07-07T00:10:41.177Z,51.51
2018-07-07T00:11:41.149Z,51.81
2018-07-07T00:12:41.135Z,51.81
2018-07-07T00:13:41.122Z,52.00
2018-07-07T00:14:41.108Z,52.19
2018-07-07T00:15:41.094Z,52.19
2018-07-07T00:16:41.081Z,52.28
2018-07-07T00:17:41.066Z,52.76
2018-07-07T00:18:41.053Z,52.86
2018-07-07T00:19:41.038Z,53.44
2018-07-07T00:20:41.025Z,53.34
2018-07-07T00:21:41.013Z,53.05
2018-07-07T00:22:40.998Z,53.53
2018-07-07T00:23:40.983Z,54.01
2018-07-07T00:24:40.969Z,53.63
2018-07-07T00:25:40.959Z,53.63
2018-07-07T00:26:40.945Z,54.11
2018-07-07T00:27:40.936Z,54.58
2018-07-07T00:28:40.914Z,54.11
2018-07-07T00:29:40.985Z,54.21
2018-07-07T00:30:40.887Z,54.11
2018-07-07T00:31:40.871Z,54.58
2018-07-07T00:32:40.861Z,55.04
2018-07-07T00:33:40.844Z,55.33
2018-07-07T00:34:40.833Z,55.33
2018-07-07T00:35:40.817Z,55.13
2018-07-07T00:36:40.811Z,55.62
2018-07-07T00:37:40.789Z,55.62
2018-07-07T00:38:40.776Z,56.29
2018-07-07T00:39:40.761Z,55.90
2018-07-07T00:40:40.754Z,56.67
2018-07-07T00:41:40.735Z,56.29
2018-07-07T00:42:40.718Z,56.48
2018-07-07T00:43:40.701Z,56.86
2018-07-07T00:44:40.691Z,56.48
2018-07-07T00:45:40.676Z,57.15
2018-07-07T00:46:40.662Z,56.96
2018-07-07T00:47:40.653Z,57.15
2018-07-07T00:48:40.634Z,57.06
2018-07-07T00:49:40.619Z,56.86
2018-07-07T00:50:40.606Z,57.15
2018-07-07T00:51:40.601Z,56.96
2018-07-07T00:52:40.577Z,57.63
2018-07-07T00:53:40.573Z,57.63
2018-07-07T00:54:40.550Z,57.53
2018-07-07T00:55:40.541Z,58.11
2018-07-07T00:56:40.529Z,57.82
2018-07-07T00:57:40.507Z,57.92
2018-07-07T00:58:40.492Z,58.87
2018-07-07T00:59:40.493Z,58.49
2018-07-07T01:00:40.465Z,58.49
2018-07-07T01:01:40.449Z,58.65
2018-07-07T01:02:40.437Z,58.84
2018-07-07T01:03:40.433Z,58.65
2018-07-07T01:04:40.413Z,59.23
2018-07-07T01:05:40.395Z,59.13
2018-07-07T01:06:40.379Z,59.13
2018-07-07T01:07:40.365Z,58.84
2018-07-07T01:08:40.350Z,58.94
2018-07-07T01:09:40.338Z,59.33
2018-07-07T01:10:40.324Z,59.80
2018-07-07T01:11:40.307Z,59.71
2018-07-07T01:12:40.293Z,59.36
2018-07-07T01:13:40.280Z,59.42
2018-07-07T01:14:40.264Z,59.33
2018-07-07T01:15:40.251Z,59.52
2018-07-07T01:16:40.237Z,59.71
2018-07-07T01:17:40.222Z,59.61
2018-07-07T01:18:40.219Z,59.52
2018-07-07T01:19:40.201Z,60.09
2018-07-07T01:20:40.179Z,60.38
2018-07-07T01:21:40.166Z,60.28
2018-07-07T01:22:40.150Z,60.09
2018-07-07T01:23:40.135Z,60.86
2018-07-07T01:24:40.122Z,60.28
2018-07-07T01:25:40.125Z,60.86
2018-07-07T01:26:40.094Z,60.76
2018-07-07T01:27:40.086Z,61.34
2018-07-07T01:28:40.065Z,61.15
2018-07-07T01:29:40.051Z,61.63
2018-07-07T01:30:40.045Z,61.40
2018-07-07T01:31:40.025Z,61.60
2018-07-07T01:32:40.008Z,61.82
2018-07-07T01:33:39.993Z,62.07
2018-07-07T01:34:39.977Z,61.91
2018-07-07T01:35:39.964Z,62.10
2018-07-07T01:36:39.950Z,61.82
2018-07-07T01:37:39.968Z,62.59
2018-07-07T01:38:39.922Z,62.65
2018-07-07T01:39:39.906Z,62.49
2018-07-07T01:40:39.893Z,62.59
2018-07-07T01:41:39.887Z,62.68
2018-07-07T01:42:39.870Z,63.16
2018-07-07T01:43:39.850Z,63.16
2018-07-07T01:44:39.837Z,63.35
2018-07-07T01:45:39.824Z,62.96
2018-07-07T01:46:39.806Z,63.35
2018-07-07T01:47:39.791Z,63.16
2018-07-07T01:48:39.813Z,63.03
2018-07-07T01:49:39.764Z,63.73
2018-07-07T01:50:39.748Z,63.92
2018-07-07T01:51:39.732Z,63.89
2018-07-07T01:52:39.720Z,64.40
2018-07-07T01:53:39.705Z,64.37
2018-07-07T01:54:39.689Z,64.47
2018-07-07T01:55:39.675Z,64.59
2018-07-07T01:56:39.662Z,64.59
2018-07-07T01:57:39.652Z,64.66
2018-07-07T01:58:39.684Z,64.89
2018-07-07T01:59:39.624Z,65.08
2018-07-07T02:00:39.612Z,65.33
2018-07-07T02:01:39.597Z,65.81
2018-07-07T02:02:39.582Z,65.71
2018-07-07T02:03:39.562Z,66.09
2018-07-07T02:04:39.548Z,66.19
2018-07-07T02:05:39.534Z,66.58
2018-07-07T02:06:39.517Z,66.86
2018-07-07T02:07:39.503Z,67.44
2018-07-07T02:08:39.490Z,67.05
2018-07-07T02:09:39.479Z,67.44
2018-07-07T02:10:39.465Z,67.91
2018-07-07T02:11:39.444Z,67.72
2018-07-07T02:12:39.431Z,68.40
2018-07-07T02:13:39.419Z,68.49
2018-07-07T02:14:39.408Z,68.11
2018-07-07T02:15:39.387Z,68.40
2018-07-07T02:16:39.370Z,68.59
2018-07-07T02:17:39.372Z,68.40
2018-07-07T02:18:39.347Z,68.49
2018-07-07T02:19:39.338Z,68.21
2018-07-07T02:20:39.313Z,68.68
2018-07-07T02:21:39.300Z,68.78
2018-07-07T02:22:39.436Z,69.54
2018-07-07T02:23:39.271Z,69.45
2018-07-07T02:24:39.255Z,68.87
2018-07-07T02:25:39.244Z,69.26
2018-07-07T02:26:39.238Z,69.07
2018-07-07T02:27:39.212Z,69.20
2018-07-07T02:28:39.197Z,69.35
2018-07-07T02:29:39.183Z,69.26
2018-07-07T02:30:39.169Z,69.35
2018-07-07T02:31:39.157Z,69.74
2018-07-07T02:32:39.140Z,70.21
2018-07-07T02:33:39.125Z,70.03
2018-07-07T02:34:39.114Z,69.93
2018-07-07T02:35:39.097Z,70.21
2018-07-07T02:36:39.082Z,69.83
2018-07-07T02:37:39.070Z,70.50
2018-07-07T02:38:39.054Z,70.89
2018-07-07T02:39:39.043Z,70.70
2018-07-07T02:40:39.023Z,71.17
2018-07-07T02:41:39.015Z,71.08
2018-07-07T02:42:38.994Z,71.37
2018-07-07T02:43:38.985Z,70.89
2018-07-07T02:44:38.975Z,71.17
2018-07-07T02:45:38.956Z,71.75
2018-07-07T02:46:38.934Z,71.94
2018-07-07T02:47:38.927Z,71.84
2018-07-07T02:48:38.912Z,71.66
2018-07-07T02:49:38.892Z,71.94
2018-07-07T02:50:38.876Z,71.56
2018-07-07T02:51:38.861Z,72.42
2018-07-07T02:52:38.850Z,72.42
2018-07-07T02:53:38.832Z,72.13
2018-07-07T02:54:38.818Z,72.80
2018-07-07T02:55:38.802Z,72.80
2018-07-07T02:56:38.791Z,72.71
2018-07-07T02:57:38.782Z,72.90
2018-07-07T02:58:38.757Z,73.19
2018-07-07T02:59:38.745Z,73.09
2018-07-07T03:00:38.729Z,73.09
2018-07-07T03:01:38.714Z,73.19
2018-07-07T03:02:38.700Z,73.57
2018-07-07T03:03:38.684Z,73.28
2018-07-07T03:04:38.670Z,74.05
2018-07-07T03:05:38.655Z,73.57
2018-07-07T03:06:38.644Z,74.15
2018-07-07T03:07:38.624Z,74.20
2018-07-07T03:08:38.613Z,74.40
2018-07-07T03:09:38.597Z,74.49
2018-07-07T03:10:38.581Z,74.87
2018-07-07T03:11:38.571Z,74.49
2018-07-07T03:12:38.551Z,74.68
2018-07-07T03:13:38.537Z,74.97
2018-07-07T03:14:38.527Z,75.35
2018-07-07T03:15:38.507Z,75.73
2018-07-07T03:16:38.494Z,75.93
2018-07-07T03:17:38.479Z,75.83
2018-07-07T03:18:38.463Z,75.54
2018-07-07T03:19:38.451Z,76.50
2018-07-07T03:20:38.445Z,76.12
2018-07-07T03:21:38.419Z,76.40
2018-07-07T03:22:38.404Z,76.60
2018-07-07T03:23:38.388Z,76.60
2018-07-07T03:24:38.374Z,76.50
2018-07-07T03:25:38.361Z,76.60
2018-07-07T03:26:38.345Z,76.89
2018-07-07T03:27:38.432Z,77.08
2018-07-07T03:28:38.316Z,77.17
2018-07-07T03:29:38.299Z,77.46
2018-07-07T03:30:38.285Z,77.26
2018-07-07T03:31:38.272Z,77.17
2018-07-07T03:32:38.255Z,77.55
2018-07-07T03:33:38.241Z,78.32
2018-07-07T03:34:38.234Z,77.65
2018-07-07T03:35:38.209Z,77.55
2018-07-07T03:36:38.198Z,78.03
2018-07-07T03:37:38.179Z,78.03
2018-07-07T03:38:38.163Z,77.84
2018-07-07T03:39:38.150Z,78.03
2018-07-07T03:40:38.135Z,77.55
2018-07-07T03:41:38.120Z,77.36
2018-07-07T03:42:38.105Z,77.36
2018-07-07T03:43:38.089Z,77.36
2018-07-07T03:44:38.074Z,78.03
2018-07-07T03:45:38.063Z,77.75
2018-07-07T03:46:38.045Z,77.94
2018-07-07T03:47:38.030Z,78.03
2018-07-07T03:48:38.023Z,78.57
2018-07-07T03:49:38.002Z,78.51
2018-07-07T03:50:37.983Z,78.51
2018-07-07T03:51:38.070Z,78.51
2018-07-07T03:52:37.955Z,78.51
2018-07-07T03:53:37.939Z,78.13
2018-07-07T03:54:37.925Z,78.22
2018-07-07T03:55:37.908Z,78.51
2018-07-07T03:56:37.895Z,78.61
2018-07-07T03:57:37.884Z,78.61
2018-07-07T03:58:37.865Z,78.42
2018-07-07T03:59:37.849Z,78.51
2018-07-07T04:00:37.832Z,77.94
2018-07-07T04:01:37.827Z,78.61
2018-07-07T04:02:37.804Z,78.51
2018-07-07T04:03:37.788Z,78.70
2018-07-07T04:04:37.774Z,78.89
2018-07-07T04:05:37.760Z,79.28
2018-07-07T04:06:37.745Z,79.18
2018-07-07T04:07:37.730Z,79.18
2018-07-07T04:08:37.713Z,79.18
2018-07-07T04:09:37.704Z,79.18
2018-07-07T04:10:37.683Z,79.08
2018-07-07T04:11:37.669Z,78.51
2018-07-07T04:12:37.660Z,78.51
2018-07-07T04:13:37.647Z,78.22
2018-07-07T04:14:37.623Z,78.13
2018-07-07T04:15:37.608Z,78.42
2018-07-07T04:16:37.593Z,78.51
2018-07-07T04:17:37.579Z,78.03
2018-07-07T04:18:37.564Z,78.42
2018-07-07T04:19:37.553Z,78.32
2018-07-07T04:20:37.532Z,78.51
2018-07-07T04:21:37.517Z,78.89
2018-07-07T04:22:37.503Z,78.22
2018-07-07T04:23:37.487Z,78.70
2018-07-07T04:24:37.491Z,78.80
2018-07-07T04:25:37.459Z,78.89
2018-07-07T04:26:37.444Z,77.75
2018-07-07T04:27:37.427Z,78.51
2018-07-07T04:28:37.423Z,78.13
2018-07-07T04:29:37.398Z,78.32
2018-07-07T04:30:37.388Z,78.89
2018-07-07T04:31:37.368Z,79.37
2018-07-07T04:32:37.355Z,79.37
2018-07-07T04:33:37.341Z,79.18
2018-07-07T04:34:37.325Z,78.70
2018-07-07T04:35:37.308Z,78.51
2018-07-07T04:36:37.294Z,79.03
2018-07-07T04:37:37.279Z,79.32
2018-07-07T04:38:37.269Z,81.33
2018-07-07T04:39:37.250Z,80.18
2018-07-07T04:40:37.236Z,80.94
2018-07-07T04:41:37.220Z,79.80
2018-07-07T04:42:37.205Z,78.93
2018-07-07T04:43:37.191Z,78.78
2018-07-07T04:44:37.176Z,77.44
2018-07-07T04:45:37.162Z,77.44
2018-07-07T04:46:37.148Z,77.44
2018-07-07T04:47:37.137Z,77.15
2018-07-07T04:48:37.115Z,77.50
2018-07-07T04:49:37.111Z,78.20
2018-07-07T04:50:37.093Z,77.82
2018-07-07T04:51:37.071Z,77.59
2018-07-07T04:52:37.059Z,77.25
2018-07-07T04:53:37.060Z,78.78
2018-07-07T04:54:37.031Z,78.11
2018-07-07T04:55:37.029Z,77.88
2018-07-07T04:56:36.998Z,77.82
2018-07-07T04:57:36.986Z,77.73
2018-07-07T04:58:36.969Z,77.25
2018-07-07T04:59:36.956Z,77.25
2018-07-07T05:00:36.945Z,77.53
2018-07-07T05:01:36.930Z,77.44
2018-07-07T05:02:36.916Z,77.44
2018-07-07T05:03:36.897Z,77.44
2018-07-07T05:04:36.957Z,78.20
2018-07-07T05:05:36.871Z,77.44
2018-07-07T05:06:36.854Z,77.15
2018-07-07T05:07:36.839Z,77.34
2018-07-07T05:08:36.823Z,76.86
2018-07-07T05:09:36.809Z,77.19
2018-07-07T05:10:36.802Z,76.57
2018-07-07T05:11:36.781Z,76.86
2018-07-07T05:12:36.866Z,77.44
2018-07-07T05:13:36.751Z,77.63
2018-07-07T05:14:36.738Z,77.44
2018-07-07T05:15:36.753Z,77.15
2018-07-07T05:16:36.708Z,77.73
2018-07-07T05:17:36.702Z,77.73
2018-07-07T05:18:36.691Z,77.29
2018-07-07T05:19:36.676Z,77.38
2018-07-07T05:20:36.649Z,77.00
2018-07-07T05:21:36.636Z,76.71
2018-07-07T05:22:36.626Z,76.42
2018-07-07T05:23:36.610Z,77.00
2018-07-07T05:24:36.592Z,76.62
2018-07-07T05:25:36.580Z,76.62
2018-07-07T05:26:36.572Z,77.00
2018-07-07T05:27:36.549Z,77.38
2018-07-07T05:28:36.537Z,77.38
2018-07-07T05:29:36.524Z,76.62
2018-07-07T05:30:36.506Z,76.52
2018-07-07T05:31:36.490Z,75.95
2018-07-07T05:32:36.477Z,77.09
2018-07-07T05:33:36.464Z,77.00
2018-07-07T05:34:36.450Z,77.58
2018-07-07T05:35:36.433Z,77.33
2018-07-07T05:36:36.420Z,77.58
2018-07-07T05:37:36.408Z,77.61
2018-07-07T05:38:36.397Z,77.51
2018-07-07T05:39:36.377Z,77.71
2018-07-07T05:40:36.363Z,77.61
2018-07-07T05:41:36.350Z,77.71
2018-07-07T05:42:36.344Z,77.33
2018-07-07T05:43:36.321Z,75.70
2018-07-07T05:44:36.315Z,74.90
2018-07-07T05:45:36.292Z,71.04
2018-07-07T05:46:36.280Z,67.97
2018-07-07T05:47:36.264Z,64.08
2018-07-07T05:48:36.254Z,61.25
2018-07-07T05:49:36.239Z,59.74
2018-07-07T05:50:36.227Z,58.32
2018-07-07T05:51:36.209Z,56.80
2018-07-07T05:52:36.198Z,55.67
2018-07-07T05:53:36.185Z,55.51
2018-07-07T05:54:36.172Z,54.53
2018-07-07T05:55:36.159Z,54.57
2018-07-07T05:56:36.148Z,53.89
2018-07-07T05:57:36.145Z,52.85
2018-07-07T05:58:36.129Z,52.58
2018-07-07T05:59:36.116Z,53.50
2018-07-07T06:00:36.107Z,54.27
2018-07-07T06:01:36.103Z,54.93
2018-07-07T06:02:36.084Z,56.09
2018-07-07T06:03:36.074Z,55.79
2018-07-07T06:04:36.073Z,56.71
2018-07-07T06:05:36.067Z,57.19
2018-07-07T06:06:36.048Z,56.73
2018-07-07T06:07:36.041Z,55.79
2018-07-07T06:08:36.031Z,54.57
2018-07-07T06:09:36.023Z,53.26
2018-07-07T06:10:36.016Z,51.35
2018-07-07T06:11:36.010Z,50.60
2018-07-07T06:12:35.998Z,49.85
2018-07-07T06:13:35.991Z,48.88
2018-07-07T06:14:35.986Z,48.78
2018-07-07T06:15:35.976Z,48.88
2018-07-07T06:16:35.970Z,48.05
2018-07-07T06:17:35.964Z,46.89
2018-07-07T06:18:35.963Z,47.47
2018-07-07T06:19:35.956Z,47.28
2018-07-07T06:20:35.945Z,47.93
2018-07-07T06:21:35.940Z,48.95
2018-07-07T06:22:35.942Z,49.05
2018-07-07T06:23:35.928Z,48.30
2018-07-07T06:24:35.922Z,47.91
2018-07-07T06:25:35.919Z,47.98
2018-07-07T06:26:35.995Z,48.30
2018-07-07T06:27:35.916Z,48.49
2018-07-07T06:28:35.904Z,47.81
2018-07-07T06:29:35.900Z,48.57
2018-07-07T06:30:35.895Z,48.37
2018-07-07T06:31:35.889Z,48.47
2018-07-07T06:32:35.893Z,49.05
2018-07-07T06:33:35.881Z,48.10
2018-07-07T06:34:35.889Z,47.98
2018-07-07T06:35:35.872Z,49.41
2018-07-07T06:36:35.868Z,49.73
2018-07-07T06:37:35.864Z,48.10
2018-07-07T06:38:35.864Z,46.69
2018-07-07T06:39:35.859Z,46.11
2018-07-07T06:40:35.854Z,44.78
2018-07-07T06:41:35.851Z,44.51
2018-07-07T06:42:35.853Z,44.04
2018-07-07T06:43:35.847Z,43.07
2018-07-07T06:44:35.840Z,42.49
2018-07-07T06:45:35.840Z,42.19
2018-07-07T06:46:35.837Z,42.49
2018-07-07T06:47:35.841Z,42.97
2018-07-07T06:48:35.843Z,42.87
2018-07-07T06:49:35.829Z,42.31
2018-07-07T06:50:35.835Z,41.55
2018-07-07T06:51:35.825Z,41.65
2018-07-07T06:52:35.830Z,41.09
2018-07-07T06:53:35.852Z,40.41
2018-07-07T06:54:35.827Z,40.01
2018-07-07T06:55:35.832Z,39.75
2018-07-07T06:56:35.818Z,39.55
2018-07-07T06:57:35.816Z,39.75
2018-07-07T06:58:35.823Z,38.57
2018-07-07T06:59:35.912Z,39.70
2018-07-07T07:00:35.843Z,41.24
2018-07-07T07:01:35.826Z,42.19
2018-07-07T07:02:35.822Z,42.76
2018-07-07T07:03:35.823Z,43.16
2018-07-07T07:04:35.810Z,42.97
2018-07-07T07:05:35.823Z,42.85
2018-07-07T07:06:35.854Z,44.17
2018-07-07T07:07:35.810Z,44.95
2018-07-07T07:08:35.809Z,44.85
2018-07-07T07:09:35.813Z,45.24
2018-07-07T07:10:35.810Z,45.34
2018-07-07T07:11:35.811Z,43.44
2018-07-07T07:12:35.809Z,42.87
2018-07-07T07:13:35.810Z,43.05
2018-07-07T07:14:35.809Z,42.29
2018-07-07T07:15:35.814Z,41.93
2018-07-07T07:16:35.820Z,41.93
2018-07-07T07:17:35.830Z,42.95
2018-07-07T07:18:35.812Z,44.00
2018-07-07T07:19:35.813Z,44.75
2018-07-07T07:20:35.812Z,45.61
2018-07-07T07:21:35.812Z,46.45
2018-07-07T07:22:35.820Z,46.94
2018-07-07T07:23:35.813Z,46.92
2018-07-07T07:24:35.814Z,48.06
2018-07-07T07:25:35.825Z,49.68
2018-07-07T07:26:35.822Z,49.12
2018-07-07T07:27:35.844Z,47.96
2018-07-07T07:28:35.814Z,48.25
2018-07-07T07:29:35.825Z,47.50
2018-07-07T07:30:35.815Z,46.43
2018-07-07T07:31:35.821Z,45.68
2018-07-07T07:32:35.864Z,44.32
2018-07-07T07:33:35.815Z,43.33
2018-07-07T07:34:35.824Z,43.82
2018-07-07T07:35:35.825Z,44.64
2018-07-07T07:36:35.824Z,46.29
2018-07-07T07:37:35.816Z,46.39
2018-07-07T07:38:35.823Z,47.55
2018-07-07T07:39:35.814Z,47.84
2018-07-07T07:40:35.822Z,48.03
2018-07-07T07:41:35.812Z,48.69
2018-07-07T07:42:35.813Z,48.49
2018-07-07T07:43:35.813Z,48.22
2018-07-07T07:44:35.810Z,47.45
2018-07-07T07:45:35.874Z,47.64
2018-07-07T07:46:35.810Z,47.14
2018-07-07T07:47:35.815Z,47.69
2018-07-07T07:48:35.821Z,47.21
2018-07-07T07:49:35.805Z,46.15
2018-07-07T07:50:35.799Z,45.86
2018-07-07T07:51:35.801Z,45.18
2018-07-07T07:52:35.799Z,43.82
2018-07-07T07:53:35.801Z,43.92
2018-07-07T07:54:35.787Z,45.95
2018-07-07T07:55:35.800Z,46.25
2018-07-07T07:56:35.779Z,47.09
2018-07-07T07:57:35.775Z,47.11
2018-07-07T07:58:35.771Z,46.36
2018-07-07T07:59:35.767Z,46.09
2018-07-07T08:00:35.763Z,45.61
2018-07-07T08:01:35.761Z,45.03
2018-07-07T08:02:35.752Z,43.60
2018-07-07T08:03:35.859Z,42.72
2018-07-07T08:04:35.766Z,43.68
2018-07-07T08:05:35.742Z,44.81
2018-07-07T08:06:35.733Z,47.31
2018-07-07T08:07:35.731Z,47.96
2018-07-07T08:08:35.719Z,49.27
2018-07-07T08:09:35.714Z,51.37
2018-07-07T08:10:35.718Z,51.10
2018-07-07T08:11:35.702Z,51.20
2018-07-07T08:12:35.737Z,51.13
2018-07-07T08:13:35.698Z,49.68
2018-07-07T08:14:35.693Z,49.39
2018-07-07T08:15:35.689Z,50.23
2018-07-07T08:16:35.685Z,51.10
2018-07-07T08:17:35.671Z,51.37
2018-07-07T08:18:35.661Z,52.43
2018-07-07T08:19:35.655Z,52.81
2018-07-07T08:20:35.648Z,52.72
2018-07-07T08:21:35.642Z,52.04
2018-07-07T08:22:35.658Z,52.50
2018-07-07T08:23:35.635Z,52.69
2018-07-07T08:24:35.632Z,53.17
2018-07-07T08:25:35.627Z,53.75
2018-07-07T08:26:35.610Z,54.05
2018-07-07T08:27:35.609Z,53.78
2018-07-07T08:28:35.597Z,51.20
2018-07-07T08:29:35.598Z,49.77
2018-07-07T08:30:35.584Z,49.58
2018-07-07T08:31:35.588Z,49.75
2018-07-07T08:32:35.624Z,50.50
2018-07-07T08:33:35.562Z,49.46
2018-07-07T08:34:35.618Z,49.75
2018-07-07T08:35:35.549Z,49.75
2018-07-07T08:36:35.542Z,49.29
2018-07-07T08:37:35.533Z,48.83
2018-07-07T08:38:35.526Z,48.18
2018-07-07T08:39:35.526Z,48.16
2018-07-07T08:40:35.513Z,48.25
2018-07-07T08:41:35.505Z,46.73
2018-07-07T08:42:35.500Z,45.95
2018-07-07T08:43:35.489Z,44.70
2018-07-07T08:44:35.480Z,44.62
2018-07-07T08:45:35.475Z,45.08
2018-07-07T08:46:35.465Z,45.28
2018-07-07T08:47:35.460Z,45.76
2018-07-07T08:48:35.493Z,45.18
2018-07-07T08:49:35.462Z,45.30
2018-07-07T08:50:35.432Z,44.06
2018-07-07T08:51:35.423Z,43.58
2018-07-07T08:52:35.424Z,43.02
2018-07-07T08:53:35.409Z,42.90
2018-07-07T08:54:35.399Z,42.80
2018-07-07T08:55:35.391Z,43.95
2018-07-07T08:56:35.384Z,45.83
2018-07-07T08:57:35.382Z,46.39
2018-07-07T08:58:35.367Z,47.45
2018-07-07T08:59:35.358Z,46.32
2018-07-07T09:00:35.355Z,44.70
2018-07-07T09:01:35.351Z,44.70
2018-07-07T09:02:35.343Z,44.62
2018-07-07T09:03:35.326Z,44.40
2018-07-07T09:04:35.319Z,44.98
2018-07-07T09:05:35.311Z,45.47
2018-07-07T09:06:35.305Z,45.45
2018-07-07T09:07:35.333Z,45.28
2018-07-07T09:08:35.295Z,45.76
2018-07-07T09:09:35.288Z,45.47
2018-07-07T09:10:35.274Z,45.35
2018-07-07T09:11:35.272Z,45.45
2018-07-07T09:12:35.293Z,45.93
2018-07-07T09:13:35.264Z,45.45
2018-07-07T09:14:35.243Z,44.96
2018-07-07T09:15:35.247Z,45.74
2018-07-07T09:16:35.245Z,44.62
2018-07-07T09:17:35.243Z,43.09
2018-07-07T09:18:35.217Z,42.78
2018-07-07T09:19:35.220Z,43.07
2018-07-07T09:20:35.209Z,43.63
2018-07-07T09:21:35.203Z,44.23
2018-07-07T09:22:35.205Z,43.85
2018-07-07T09:23:35.196Z,43.38
2018-07-07T09:24:35.221Z,43.21
2018-07-07T09:25:35.183Z,42.46
2018-07-07T09:26:35.191Z,41.78
2018-07-07T09:27:35.176Z,42.32
2018-07-07T09:28:35.174Z,43.29
2018-07-07T09:29:35.165Z,42.72
2018-07-07T09:30:35.161Z,42.07
2018-07-07T09:31:35.200Z,42.24
2018-07-07T09:32:35.158Z,42.26
2018-07-07T09:33:35.149Z,41.14
2018-07-07T09:34:35.143Z,39.98
2018-07-07T09:35:35.138Z,40.15
2018-07-07T09:36:35.133Z,40.52
2018-07-07T09:37:35.128Z,41.58
2018-07-07T09:38:35.126Z,41.22
2018-07-07T09:39:35.123Z,39.90
2018-07-07T09:40:35.116Z,39.51
2018-07-07T09:41:35.117Z,38.93
2018-07-07T09:42:35.116Z,39.80
2018-07-07T09:43:35.110Z,39.70
2018-07-07T09:44:35.101Z,39.80
2018-07-07T09:45:35.101Z,39.51
2018-07-07T09:46:35.106Z,39.34
2018-07-07T09:47:35.104Z,38.85
2018-07-07T09:48:35.100Z,39.80
2018-07-07T09:49:35.098Z,38.93
2018-07-07T09:50:35.092Z,39.41
2018-07-07T09:51:35.087Z,39.80
2018-07-07T09:52:35.082Z,39.80
2018-07-07T09:53:35.080Z,39.53
2018-07-07T09:54:35.077Z,38.67
2018-07-07T09:55:35.075Z,38.60
2018-07-07T09:56:35.072Z,38.01
2018-07-07T09:57:35.068Z,38.01
2018-07-07T09:58:35.066Z,37.34
2018-07-07T09:59:35.061Z,37.43
2018-07-07T10:00:35.058Z,37.62
2018-07-07T10:01:35.058Z,38.31
2018-07-07T10:02:35.053Z,38.50
2018-07-07T10:03:35.048Z,37.52
2018-07-07T10:04:35.053Z,37.26
2018-07-07T10:05:35.051Z,37.14
2018-07-07T10:06:35.048Z,37.04
2018-07-07T10:07:35.040Z,37.06
2018-07-07T10:08:35.035Z,36.02
2018-07-07T10:09:35.099Z,35.93
2018-07-07T10:10:35.041Z,34.99
2018-07-07T10:11:35.042Z,34.24
2018-07-07T10:12:35.031Z,32.89
2018-07-07T10:13:35.127Z,32.50
2018-07-07T10:14:35.039Z,31.74
2018-07-07T10:15:35.040Z,32.13
2018-07-07T10:16:35.036Z,32.23
2018-07-07T10:17:35.030Z,32.03
2018-07-07T10:18:35.029Z,32.31
2018-07-07T10:19:35.136Z,32.40
2018-07-07T10:20:35.086Z,32.13
2018-07-07T10:21:35.030Z,31.35
2018-07-07T10:22:35.045Z,31.16
2018-07-07T10:23:35.033Z,30.49
2018-07-07T10:24:35.037Z,30.59
2018-07-07T10:25:35.037Z,30.49
2018-07-07T10:26:35.040Z,30.20
2018-07-07T10:27:35.042Z,30.30
2018-07-07T10:28:35.054Z,29.63
2018-07-07T10:29:35.065Z,29.83
2018-07-07T10:30:35.052Z,29.73
2018-07-07T10:31:35.121Z,29.71
2018-07-07T10:32:35.161Z,30.10
2018-07-07T10:33:35.065Z,29.91
2018-07-07T10:34:35.078Z,30.77
2018-07-07T10:35:35.072Z,30.48
2018-07-07T10:36:35.085Z,31.08
2018-07-07T10:37:35.152Z,30.00
2018-07-07T10:38:35.088Z,29.61
2018-07-07T10:39:35.105Z,29.90
2018-07-07T10:40:35.101Z,30.96
2018-07-07T10:41:35.107Z,31.15
2018-07-07T10:42:35.113Z,30.00
2018-07-07T10:43:35.130Z,29.44
2018-07-07T10:44:35.124Z,29.25
2018-07-07T10:45:35.190Z,29.13
2018-07-07T10:46:35.138Z,29.02
2018-07-07T10:47:35.153Z,28.54
2018-07-07T10:48:35.154Z,28.45
2018-07-07T10:49:35.165Z,28.16
2018-07-07T10:50:35.172Z,27.69
2018-07-07T10:51:35.186Z,27.58
2018-07-07T10:52:35.186Z,28.25
2018-07-07T10:53:35.192Z,28.44
2018-07-07T10:54:35.192Z,28.63
2018-07-07T10:55:35.270Z,28.72
2018-07-07T10:56:35.216Z,29.11
2018-07-07T10:57:35.421Z,28.74
2018-07-07T10:58:35.225Z,28.43
2018-07-07T10:59:35.232Z,29.02
2018-07-07T11:00:35.235Z,29.50
2018-07-07T11:01:35.243Z,29.31
2018-07-07T11:02:35.304Z,29.69
2018-07-07T11:03:35.258Z,30.47
2018-07-07T11:04:35.268Z,30.47
2018-07-07T11:05:35.271Z,30.35
2018-07-07T11:06:35.278Z,30.76
2018-07-07T11:07:35.286Z,29.71
2018-07-07T11:08:35.298Z,29.02
2018-07-07T11:09:35.300Z,28.25
2018-07-07T11:10:35.308Z,27.95
2018-07-07T11:11:35.316Z,28.16
2018-07-07T11:12:35.324Z,27.67
2018-07-07T11:13:35.337Z,27.77
2018-07-07T11:14:35.355Z,28.64
2018-07-07T11:15:35.347Z,29.03
2018-07-07T11:16:35.356Z,28.65
2018-07-07T11:17:35.368Z,29.03
2018-07-07T11:18:35.383Z,29.52
2018-07-07T11:19:35.392Z,29.22
2018-07-07T11:20:35.385Z,30.00
2018-07-07T11:21:35.400Z,29.42
2018-07-07T11:22:35.400Z,29.91
2018-07-07T11:23:35.412Z,29.21
2018-07-07T11:24:35.415Z,29.60
2018-07-07T11:25:35.422Z,29.80
2018-07-07T11:26:35.435Z,30.18
2018-07-07T11:27:35.437Z,30.58
2018-07-07T11:28:35.453Z,29.69
2018-07-07T11:29:35.452Z,29.59
2018-07-07T11:30:35.469Z,30.65
2018-07-07T11:31:35.480Z,30.37
2018-07-07T11:32:35.481Z,30.27
2018-07-07T11:33:35.483Z,30.55
2018-07-07T11:34:35.490Z,30.73
2018-07-07T11:35:35.505Z,31.22
2018-07-07T11:36:35.631Z,31.80
2018-07-07T11:37:35.518Z,31.22
2018-07-07T11:38:35.567Z,31.70
2018-07-07T11:39:35.525Z,31.70
2018-07-07T11:40:35.534Z,31.62
2018-07-07T11:41:35.537Z,31.51
2018-07-07T11:42:35.542Z,31.41
2018-07-07T11:43:35.559Z,31.70
2018-07-07T11:44:35.556Z,31.99
2018-07-07T11:45:35.568Z,32.08
2018-07-07T11:46:35.566Z,31.67
2018-07-07T11:47:35.581Z,32.06
2018-07-07T11:48:35.575Z,32.55
2018-07-07T11:49:35.581Z,32.82
2018-07-07T11:50:35.697Z,32.94
2018-07-07T11:51:35.595Z,32.65
2018-07-07T11:52:35.594Z,32.26
2018-07-07T11:53:35.598Z,32.06
2018-07-07T11:54:35.608Z,32.16
2018-07-07T11:55:35.606Z,32.26
2018-07-07T11:56:35.606Z,32.45
2018-07-07T11:57:35.609Z,33.39
2018-07-07T11:58:35.613Z,33.77
2018-07-07T11:59:35.615Z,34.92
2018-07-07T12:00:35.619Z,35.41
2018-07-07T12:01:35.716Z,36.07
2018-07-07T12:02:35.613Z,36.46
2018-07-07T12:03:35.664Z,36.65
2018-07-07T12:04:35.650Z,37.14
2018-07-07T12:05:35.615Z,36.46
2018-07-07T12:06:35.620Z,36.73
2018-07-07T12:07:35.620Z,37.41
2018-07-07T12:08:35.614Z,37.60
2018-07-07T12:09:35.617Z,37.70
2018-07-07T12:10:35.606Z,37.88
2018-07-07T12:11:35.657Z,37.88
2018-07-07T12:12:35.607Z,38.07
2018-07-07T12:13:35.600Z,37.59
2018-07-07T12:14:35.607Z,37.37
2018-07-07T12:15:35.595Z,37.57
2018-07-07T12:16:35.597Z,38.64
2018-07-07T12:17:35.600Z,38.44
2018-07-07T12:18:35.581Z,39.32
2018-07-07T12:19:35.578Z,38.73
2018-07-07T12:20:35.582Z,38.83
2018-07-07T12:21:35.571Z,39.12
2018-07-07T12:22:35.573Z,39.12
2018-07-07T12:23:35.567Z,39.49
2018-07-07T12:24:35.560Z,39.29
2018-07-07T12:25:35.555Z,39.61
2018-07-07T12:26:35.555Z,39.39
2018-07-07T12:27:35.547Z,39.69
2018-07-07T12:28:35.547Z,39.59
2018-07-07T12:29:35.532Z,39.78
2018-07-07T12:30:35.528Z,40.46
2018-07-07T12:31:35.521Z,40.00
2018-07-07T12:32:35.515Z,39.03
2018-07-07T12:33:35.512Z,39.12
2018-07-07T12:34:35.514Z,39.61
2018-07-07T12:35:35.504Z,39.32
2018-07-07T12:36:35.537Z,39.61
2018-07-07T12:37:35.488Z,39.41
2018-07-07T12:38:35.483Z,39.41
2018-07-07T12:39:35.475Z,39.32
2018-07-07T12:40:35.571Z,39.49
2018-07-07T12:41:35.473Z,39.49
2018-07-07T12:42:35.458Z,39.69
2018-07-07T12:43:35.490Z,39.78
2018-07-07T12:44:35.446Z,39.61
2018-07-07T12:45:35.439Z,39.70
2018-07-07T12:46:35.433Z,39.80
2018-07-07T12:47:35.432Z,39.51
2018-07-07T12:48:35.577Z,39.59
2018-07-07T12:49:35.427Z,39.59
2018-07-07T12:50:35.406Z,39.98
2018-07-07T12:51:35.404Z,40.17
2018-07-07T12:52:35.399Z,40.26